createdAt,value
2022-12-01T00:01:35.638Z,3.75
2022-12-01T00:04:05.419Z,4.00
2022-12-01T00:06:38.077Z,3.75
2022-12-01T00:09:23.679Z,3.70
2022-12-01T00:11:50.839Z,3.92
2022-12-01T00:14:23.015Z,3.97
2022-12-01T00:16:52.664Z,3.40
2022-12-01T00:19:25.174Z,3.55
2022-12-01T00:21:52.364Z,3.57
2022-12-01T00:24:20.012Z,3.90
2022-12-01T00:26:47.138Z,3.83
2022-12-01T00:29:14.468Z,3.45
2022-12-01T00:31:41.656Z,3.63
2022-12-01T00:34:25.336Z,3.90
2022-12-01T00:36:52.837Z,3.92
2022-12-01T00:39:21.382Z,3.13
2022-12-01T00:41:48.508Z,4.00
2022-12-01T00:44:15.846Z,4.28
2022-12-01T00:46:43.007Z,4.50
2022-12-01T00:49:12.779Z,4.53
2022-12-01T00:51:42.330Z,4.05
2022-12-01T00:54:09.636Z,3.72
2022-12-01T00:56:36.752Z,3.58
2022-12-01T00:59:06.372Z,3.45
2022-12-01T01:01:34.286Z,4.53
2022-12-01T01:04:03.673Z,3.72
2022-12-01T01:06:31.146Z,3.38
2022-12-01T01:08:58.379Z,4.30
2022-12-01T01:11:27.991Z,4.07
2022-12-01T01:14:02.244Z,4.47
2022-12-01T01:16:30.442Z,3.87
2022-12-01T01:19:00.251Z,4.15
2022-12-01T01:21:28.510Z,4.63
2022-12-01T01:23:56.392Z,6.00
2022-12-01T01:26:30.002Z,4.03
2022-12-01T01:29:03.963Z,4.95
2022-12-01T01:31:36.602Z,4.10
2022-12-01T01:34:06.405Z,4.40
2022-12-01T01:36:34.059Z,4.63
2022-12-01T01:39:04.222Z,3.67
2022-12-01T01:41:33.905Z,4.25
2022-12-01T01:44:05.509Z,4.30
2022-12-01T01:46:34.868Z,3.33
2022-12-01T01:49:07.909Z,3.80
2022-12-01T01:51:43.162Z,4.03
2022-12-01T01:54:23.700Z,4.10
2022-12-01T01:56:57.412Z,3.75
2022-12-01T01:59:32.041Z,3.40
2022-12-01T02:02:08.485Z,4.15
2022-12-01T02:04:41.633Z,3.55
2022-12-01T02:07:09.390Z,4.85
2022-12-01T02:09:36.660Z,3.88
2022-12-01T02:12:16.546Z,3.83
2022-12-01T02:15:17.743Z,4.00
2022-12-01T02:18:23.168Z,3.40
2022-12-01T02:20:50.381Z,3.20
2022-12-01T02:23:47.717Z,4.47
2022-12-01T02:26:52.701Z,4.05
2022-12-01T02:29:51.430Z,4.10
2022-12-01T02:32:46.107Z,3.70
2022-12-01T02:35:19.192Z,4.05
2022-12-01T02:40:46.768Z,4.32
2022-12-01T02:43:27.837Z,4.43
2022-12-01T02:46:13.789Z,3.70
2022-12-01T02:48:46.461Z,4.10
2022-12-01T02:51:19.486Z,3.78
2022-12-01T02:56:21.433Z,3.67
2022-12-01T02:58:48.562Z,4.05
2022-12-01T03:01:32.341Z,4.78
2022-12-01T03:07:21.658Z,4.47
2022-12-01T03:10:04.912Z,4.03
2022-12-01T03:12:46.259Z,3.67
2022-12-01T03:15:39.075Z,3.53
2022-12-01T03:18:14.524Z,4.10
2022-12-01T03:21:15.047Z,4.07
2022-12-01T03:23:49.816Z,4.15
2022-12-01T03:26:21.892Z,3.88
2022-12-01T03:28:54.531Z,3.83
2022-12-01T03:31:35.182Z,3.40
2022-12-01T03:34:09.054Z,3.85
2022-12-01T03:36:48.014Z,3.88
2022-12-01T03:39:24.031Z,4.50
2022-12-01T03:42:01.384Z,3.72
2022-12-01T03:44:36.230Z,3.83
2022-12-01T03:47:10.754Z,3.65
2022-12-01T03:49:41.060Z,4.35
2022-12-01T03:52:26.961Z,3.25
2022-12-01T03:55:20.852Z,4.10
2022-12-01T03:58:01.647Z,3.35
2022-12-01T04:00:31.126Z,3.50
2022-12-01T04:03:05.790Z,4.47
2022-12-01T04:05:38.508Z,4.25
2022-12-01T04:08:08.172Z,4.53
2022-12-01T04:10:38.008Z,3.80
2022-12-01T04:13:05.096Z,4.75
2022-12-01T04:15:34.501Z,4.30
2022-12-01T04:18:04.440Z,3.30
2022-12-01T04:20:34.145Z,4.00
2022-12-01T04:23:01.285Z,4.10
2022-12-01T04:25:30.823Z,4.63
2022-12-01T04:28:00.702Z,3.90
2022-12-01T04:30:27.844Z,4.03
2022-12-01T04:32:55.373Z,3.28
2022-12-01T04:35:24.753Z,3.88
2022-12-01T04:37:52.046Z,4.45
2022-12-01T04:40:19.547Z,4.32
2022-12-01T04:42:50.805Z,4.78
2022-12-01T04:45:20.194Z,4.50
2022-12-01T04:47:52.912Z,3.95
2022-12-01T04:50:20.061Z,5.13
2022-12-01T04:52:47.349Z,4.57
2022-12-01T04:55:17.476Z,5.82
2022-12-01T04:57:47.117Z,4.47
2022-12-01T05:00:16.465Z,3.78
2022-12-01T05:02:46.147Z,4.65
2022-12-01T05:05:14.207Z,4.10
2022-12-01T05:07:45.954Z,4.30
2022-12-01T05:10:14.336Z,4.78
2022-12-01T05:12:48.915Z,4.00
2022-12-01T05:15:16.693Z,3.80
2022-12-01T05:17:46.175Z,5.75
2022-12-01T05:20:40.601Z,4.25
2022-12-01T05:23:10.811Z,4.60
2022-12-01T05:25:43.366Z,3.97
2022-12-01T05:28:12.823Z,4.03
2022-12-01T05:30:40.786Z,3.50
2022-12-01T05:33:10.396Z,4.85
2022-12-01T05:35:40.277Z,4.22
2022-12-01T05:38:09.687Z,6.07
2022-12-01T05:40:37.472Z,4.78
2022-12-01T05:43:07.028Z,5.15
2022-12-01T05:45:39.642Z,4.55
2022-12-01T05:48:09.744Z,3.95
2022-12-01T05:50:39.297Z,4.32
2022-12-01T05:53:07.296Z,4.95
2022-12-01T05:55:39.663Z,3.85
2022-12-01T05:58:09.592Z,4.93
2022-12-01T06:00:45.352Z,4.80
2022-12-01T06:03:14.390Z,5.45
2022-12-01T06:05:44.184Z,5.60
2022-12-01T06:08:11.621Z,4.63
2022-12-01T06:10:38.926Z,5.20
2022-12-01T06:13:08.612Z,4.88
2022-12-01T06:15:35.806Z,6.22
2022-12-01T06:18:06.074Z,6.10
2022-12-01T06:20:35.983Z,10.25
2022-12-01T06:23:06.002Z,5.30
2022-12-01T06:25:38.998Z,6.05
2022-12-01T06:28:10.887Z,5.55
2022-12-01T06:30:40.493Z,6.82
2022-12-01T06:33:11.351Z,5.38
2022-12-01T06:35:39.869Z,5.88
2022-12-01T06:38:08.079Z,5.70
2022-12-01T06:40:37.870Z,5.90
2022-12-01T06:43:09.811Z,6.50
2022-12-01T06:45:37.050Z,7.05
2022-12-01T06:48:07.412Z,7.57
2022-12-01T06:50:34.602Z,7.20
2022-12-01T06:53:02.724Z,5.65
2022-12-01T06:55:30.519Z,6.05
2022-12-01T07:00:52.431Z,7.47
2022-12-01T07:03:21.175Z,6.32
2022-12-01T07:05:59.416Z,6.38
2022-12-01T07:08:28.755Z,6.18
2022-12-01T07:11:08.242Z,6.00
2022-12-01T07:13:35.901Z,5.80
2022-12-01T07:16:07.783Z,7.13
2022-12-01T07:18:37.157Z,6.22
2022-12-01T07:21:08.888Z,5.95
2022-12-01T07:23:41.896Z,6.10
2022-12-01T07:26:14.873Z,6.18
2022-12-01T07:28:42.670Z,6.28
2022-12-01T07:31:18.041Z,7.28
2022-12-01T07:33:49.178Z,5.28
2022-12-01T07:36:18.216Z,6.68
2022-12-01T07:38:46.553Z,5.28
2022-12-01T07:41:16.813Z,5.95
2022-12-01T07:43:44.956Z,7.00
2022-12-01T07:46:22.245Z,5.38
2022-12-01T07:48:51.973Z,6.22
2022-12-01T07:51:19.976Z,6.05
2022-12-01T07:53:52.635Z,5.90
2022-12-01T07:58:53.601Z,5.15
2022-12-01T08:01:23.584Z,7.10
2022-12-01T08:03:56.686Z,6.25
2022-12-01T08:06:26.345Z,4.97
2022-12-01T08:08:53.962Z,5.90
2022-12-01T08:11:27.364Z,6.32
2022-12-01T08:13:54.931Z,6.38
2022-12-01T08:16:26.761Z,5.68
2022-12-01T08:18:55.488Z,6.53
2022-12-01T08:21:24.768Z,5.13
2022-12-01T08:23:56.404Z,5.75
2022-12-01T08:26:24.759Z,5.57
2022-12-01T08:28:52.095Z,6.57
2022-12-01T08:31:51.447Z,5.65
2022-12-01T08:34:20.501Z,5.05
2022-12-01T08:36:51.500Z,5.72
2022-12-01T08:39:21.303Z,5.05
2022-12-01T08:41:49.366Z,5.80
2022-12-01T08:44:17.274Z,5.40
2022-12-01T08:46:51.105Z,5.78
2022-12-01T08:49:22.447Z,5.20
2022-12-01T08:51:50.495Z,5.70
2022-12-01T08:54:18.222Z,4.80
2022-12-01T08:56:48.005Z,5.50
2022-12-01T08:59:15.913Z,5.22
2022-12-01T09:01:57.536Z,5.63
2022-12-01T09:04:26.889Z,6.43
2022-12-01T09:06:56.731Z,5.88
2022-12-01T09:09:31.178Z,5.65
2022-12-01T09:12:01.040Z,5.30
2022-12-01T09:14:28.327Z,6.97
2022-12-01T09:16:58.791Z,5.45
2022-12-01T09:19:28.701Z,5.93
2022-12-01T09:22:04.053Z,9.35
2022-12-01T09:24:33.639Z,5.63
2022-12-01T09:27:01.260Z,7.28
2022-12-01T09:29:28.580Z,5.43
2022-12-01T09:31:59.287Z,5.28
2022-12-01T09:34:29.220Z,5.15
2022-12-01T09:36:58.958Z,5.55
2022-12-01T09:39:26.362Z,5.60
2022-12-01T09:42:16.261Z,4.90
2022-12-01T09:44:58.071Z,5.78
2022-12-01T09:47:31.827Z,6.30
2022-12-01T09:50:02.479Z,5.43
2022-12-01T09:52:38.385Z,6.05
2022-12-01T09:55:14.901Z,6.57
2022-12-01T09:57:45.387Z,7.35
2022-12-01T10:00:29.534Z,5.82
2022-12-01T10:03:12.102Z,7.25
2022-12-01T10:06:26.126Z,7.30
2022-12-01T10:08:55.392Z,5.23
2022-12-01T10:11:35.774Z,6.70
2022-12-01T10:14:04.364Z,5.30
2022-12-01T10:16:48.487Z,5.32
2022-12-01T10:19:26.198Z,6.40
2022-12-01T10:22:31.334Z,6.13
2022-12-01T10:25:19.364Z,6.05
2022-12-01T10:27:55.537Z,7.82
2022-12-01T10:30:24.691Z,7.22
2022-12-01T10:32:53.441Z,6.70
2022-12-01T10:35:23.655Z,9.65
2022-12-01T10:37:59.674Z,9.07
2022-12-01T10:40:27.969Z,10.27
2022-12-01T10:42:57.796Z,11.13
2022-12-01T10:45:30.552Z,12.00
2022-12-01T10:48:15.275Z,12.73
2022-12-01T10:50:51.478Z,14.55
2022-12-01T10:53:29.549Z,14.43
2022-12-01T10:56:05.982Z,16.55
2022-12-01T10:58:40.046Z,19.02
2022-12-01T11:01:07.299Z,20.42
2022-12-01T11:03:36.770Z,21.13
2022-12-01T11:06:07.846Z,22.70
2022-12-01T11:08:45.773Z,19.58
2022-12-01T11:11:29.148Z,20.35
2022-12-01T11:13:58.930Z,33.60
2022-12-01T11:16:39.115Z,31.02
2022-12-01T11:19:28.103Z,26.20
2022-12-01T11:22:00.814Z,21.00
2022-12-01T11:24:30.259Z,19.35
2022-12-01T11:26:59.382Z,15.23
2022-12-01T11:30:01.550Z,15.27
2022-12-01T11:32:32.507Z,15.30
2022-12-01T11:35:07.582Z,15.02
2022-12-01T11:37:54.788Z,18.00
2022-12-01T11:40:49.242Z,14.45
2022-12-01T11:43:28.229Z,11.90
2022-12-01T11:45:58.771Z,14.18
2022-12-01T11:48:31.630Z,13.60
2022-12-01T11:51:08.869Z,13.45
2022-12-01T11:53:43.194Z,13.32
2022-12-01T11:56:19.495Z,11.98
2022-12-01T11:58:49.070Z,12.32
2022-12-01T12:01:30.282Z,11.98
2022-12-01T12:04:19.251Z,14.02
2022-12-01T12:07:18.961Z,13.90
2022-12-01T12:10:19.284Z,16.30
2022-12-01T12:12:58.471Z,19.80
2022-12-01T12:15:42.060Z,21.13
2022-12-01T12:18:38.400Z,19.08
2022-12-01T12:21:17.799Z,24.95
2022-12-01T12:23:51.457Z,25.75
2022-12-01T12:26:25.380Z,26.25
2022-12-01T12:29:34.452Z,25.27
2022-12-01T12:32:16.419Z,27.23
2022-12-01T12:35:17.084Z,29.52
2022-12-01T12:38:27.549Z,27.30
2022-12-01T12:41:25.027Z,27.65
2022-12-01T12:43:52.208Z,25.35
2022-12-01T12:46:39.309Z,29.65
2022-12-01T12:49:26.410Z,26.92
2022-12-01T12:52:19.694Z,27.40
2022-12-01T12:55:12.069Z,26.08
2022-12-01T12:57:45.821Z,26.55
2022-12-01T13:00:17.150Z,24.85
2022-12-01T13:02:49.793Z,23.30
2022-12-01T13:05:23.178Z,24.23
2022-12-01T13:08:18.754Z,20.65
2022-12-01T13:10:53.850Z,23.13
2022-12-01T13:13:24.240Z,19.08
2022-12-01T13:15:54.883Z,18.17
2022-12-01T13:18:35.396Z,21.17
2022-12-01T13:21:04.819Z,18.42
2022-12-01T13:23:35.485Z,16.27
2022-12-01T13:26:08.107Z,15.27
2022-12-01T13:28:44.479Z,17.00
2022-12-01T13:31:14.768Z,15.20
2022-12-01T13:33:55.235Z,18.00
2022-12-01T13:36:45.750Z,15.68
2022-12-01T13:39:29.465Z,16.27
2022-12-01T13:42:09.191Z,15.27
2022-12-01T13:44:36.401Z,14.15
2022-12-01T13:47:29.362Z,14.13
2022-12-01T13:49:58.356Z,13.47
2022-12-01T13:52:30.569Z,12.10
2022-12-01T13:55:10.143Z,14.00
2022-12-01T13:57:57.329Z,13.63
2022-12-01T14:00:33.309Z,12.43
2022-12-01T14:03:13.234Z,11.63
2022-12-01T14:05:40.551Z,11.85
2022-12-01T14:08:48.149Z,10.95
2022-12-01T14:11:29.853Z,12.15
2022-12-01T14:14:13.065Z,10.07
2022-12-01T14:16:46.575Z,10.05
2022-12-01T14:19:32.813Z,13.38
2022-12-01T14:22:05.552Z,9.65
2022-12-01T14:24:44.642Z,9.65
2022-12-01T14:27:12.411Z,9.98
2022-12-01T14:29:44.467Z,9.48
2022-12-01T14:32:17.786Z,17.92
2022-12-01T14:34:46.119Z,9.27
2022-12-01T14:37:23.171Z,12.68
2022-12-01T14:40:08.382Z,10.52
2022-12-01T14:42:58.199Z,8.60
2022-12-01T14:45:48.829Z,9.82
2022-12-01T14:48:23.013Z,8.70
2022-12-01T14:50:54.403Z,8.88
2022-12-01T14:53:30.063Z,8.85
2022-12-01T14:56:01.907Z,9.18
2022-12-01T14:58:32.299Z,9.10
2022-12-01T15:01:12.657Z,8.02
2022-12-01T15:03:47.503Z,8.25
2022-12-01T15:06:23.547Z,7.78
2022-12-01T15:12:07.792Z,9.55
2022-12-01T15:14:38.546Z,7.93
2022-12-01T15:17:09.047Z,8.75
2022-12-01T15:19:44.160Z,7.53
2022-12-01T15:22:16.602Z,9.43
2022-12-01T15:24:45.942Z,9.90
2022-12-01T15:27:28.637Z,11.55
2022-12-01T15:29:58.394Z,27.13
2022-12-01T15:32:27.160Z,12.35
2022-12-01T15:34:56.291Z,13.15
2022-12-01T15:37:26.120Z,9.23
2022-12-01T15:43:13.157Z,12.60
2022-12-01T15:45:56.399Z,11.70
2022-12-01T15:48:28.056Z,15.65
2022-12-01T15:51:41.331Z,12.35
2022-12-01T15:54:22.860Z,9.27
2022-12-01T15:56:56.027Z,9.32
2022-12-01T15:59:28.710Z,9.18
2022-12-01T16:01:56.897Z,10.80
2022-12-01T16:04:32.510Z,9.35
2022-12-01T16:07:05.575Z,11.85
2022-12-01T16:09:58.819Z,8.38
2022-12-01T16:12:36.395Z,7.55
2022-12-01T16:15:10.089Z,10.85
2022-12-01T16:17:44.405Z,8.82
2022-12-01T16:20:42.310Z,9.07
2022-12-01T16:23:15.150Z,8.18
2022-12-01T16:25:45.475Z,8.80
2022-12-01T16:28:35.697Z,8.70
2022-12-01T16:31:06.986Z,6.80
2022-12-01T16:33:38.787Z,9.40
2022-12-01T16:36:06.898Z,7.70
2022-12-01T16:38:34.198Z,9.07
2022-12-01T16:41:17.054Z,8.70
2022-12-01T16:44:05.446Z,7.05
2022-12-01T16:46:32.587Z,10.98
2022-12-01T16:49:04.293Z,7.95
2022-12-01T16:51:54.205Z,8.13
2022-12-01T16:54:26.479Z,9.73
2022-12-01T16:56:53.736Z,7.78
2022-12-01T16:59:20.948Z,14.30
2022-12-01T17:01:48.561Z,6.70
2022-12-01T17:04:15.949Z,6.70
2022-12-01T17:06:43.396Z,7.57
2022-12-01T17:09:10.854Z,7.35
2022-12-01T17:11:38.302Z,7.80
2022-12-01T17:14:08.698Z,8.18
2022-12-01T17:16:37.069Z,6.95
2022-12-01T17:19:04.674Z,9.13
2022-12-01T17:21:31.970Z,6.28
2022-12-01T17:23:59.326Z,7.10
2022-12-01T17:26:26.755Z,8.27
2022-12-01T17:28:56.951Z,6.72
2022-12-01T17:31:24.538Z,6.97
2022-12-01T17:33:52.001Z,8.50
2022-12-01T17:36:19.465Z,6.80
2022-12-01T17:38:50.476Z,7.15
2022-12-01T17:41:42.705Z,6.35
2022-12-01T17:44:10.189Z,7.32
2022-12-01T17:46:53.021Z,7.03
2022-12-01T17:49:20.740Z,7.70
2022-12-01T17:52:00.432Z,7.40
2022-12-01T17:54:27.695Z,9.55
2022-12-01T17:56:54.875Z,6.25
2022-12-01T17:59:22.104Z,7.88
2022-12-01T18:01:49.485Z,7.60
2022-12-01T18:04:17.203Z,6.93
2022-12-01T18:06:46.885Z,6.80
2022-12-01T18:09:18.107Z,8.60
2022-12-01T18:11:47.021Z,7.18
2022-12-01T18:14:18.013Z,6.35
2022-12-01T18:16:46.256Z,7.20
2022-12-01T18:19:13.698Z,9.63
2022-12-01T18:21:43.761Z,10.30
2022-12-01T18:24:11.266Z,9.60
2022-12-01T18:26:40.586Z,9.52
2022-12-01T18:29:12.936Z,10.43
2022-12-01T18:31:40.773Z,12.23
2022-12-01T18:34:11.358Z,8.57
2022-12-01T18:37:08.729Z,9.95
2022-12-01T18:39:59.478Z,7.80
2022-12-01T18:43:30.118Z,7.30
2022-12-01T18:46:13.011Z,9.38
2022-12-01T18:49:05.091Z,7.43
2022-12-01T18:52:03.106Z,8.48
2022-12-01T18:54:30.893Z,7.68
2022-12-01T18:57:01.633Z,6.82
2022-12-01T18:59:29.572Z,8.13
2022-12-01T19:02:00.253Z,7.85
2022-12-01T19:04:30.986Z,8.35
2022-12-01T19:06:58.629Z,7.90
2022-12-01T19:09:25.996Z,8.18
2022-12-01T19:12:00.183Z,7.40
2022-12-01T19:14:28.428Z,7.25
2022-12-01T19:16:56.907Z,7.05
2022-12-01T19:19:24.391Z,6.55
2022-12-01T19:21:51.613Z,7.03
2022-12-01T19:24:20.097Z,6.38
2022-12-01T19:26:49.940Z,5.68
2022-12-01T19:29:17.235Z,7.28
2022-12-01T19:31:44.656Z,6.82
2022-12-01T19:34:13.394Z,9.93
2022-12-01T19:36:42.363Z,8.73
2022-12-01T19:39:10.004Z,8.18
2022-12-01T19:41:38.827Z,7.35
2022-12-01T19:44:06.373Z,7.00
2022-12-01T19:46:34.339Z,6.50
2022-12-01T19:49:02.193Z,7.88
2022-12-01T19:51:37.540Z,5.97
2022-12-01T19:54:10.985Z,6.40
2022-12-01T19:56:38.343Z,7.95
2022-12-01T19:59:13.570Z,6.65
2022-12-01T20:01:41.945Z,6.80
2022-12-01T20:04:10.781Z,6.43
2022-12-01T20:06:38.522Z,8.93
2022-12-01T20:09:17.897Z,6.00
2022-12-01T20:11:46.992Z,7.38
2022-12-01T20:14:20.481Z,7.63
2022-12-01T20:16:56.062Z,7.25
2022-12-01T20:19:23.717Z,5.63
2022-12-01T20:21:54.859Z,6.10
2022-12-01T20:24:23.631Z,6.22
2022-12-01T20:26:54.014Z,6.32
2022-12-01T20:29:25.592Z,6.75
2022-12-01T20:31:55.178Z,7.18
2022-12-01T20:34:26.707Z,6.72
2022-12-01T20:36:56.457Z,6.20
2022-12-01T20:39:24.929Z,6.10
2022-12-01T20:41:52.410Z,7.45
2022-12-01T20:44:22.053Z,6.78
2022-12-01T20:46:49.487Z,6.57
2022-12-01T20:49:19.978Z,7.07
2022-12-01T20:51:48.420Z,9.63
2022-12-01T20:54:27.939Z,6.13
2022-12-01T20:56:59.025Z,6.57
2022-12-01T20:59:27.598Z,7.85
2022-12-01T21:01:55.052Z,8.20
2022-12-01T21:04:26.397Z,6.90
2022-12-01T21:07:02.557Z,5.85
2022-12-01T21:09:29.888Z,6.65
2022-12-01T21:12:18.736Z,6.35
2022-12-01T21:14:55.010Z,7.45
2022-12-01T21:17:29.708Z,7.88
2022-12-01T21:20:12.967Z,6.70
2022-12-01T21:22:43.854Z,5.93
2022-12-01T21:25:16.931Z,5.53
2022-12-01T21:27:47.577Z,6.38
2022-12-01T21:30:25.300Z,7.15
2022-12-01T21:32:53.950Z,8.50
2022-12-01T21:35:24.711Z,5.97
2022-12-01T21:37:59.137Z,6.65
2022-12-01T21:40:29.286Z,6.68
2022-12-01T21:43:09.909Z,6.65
2022-12-01T21:45:39.284Z,7.20
2022-12-01T21:48:15.836Z,7.28
2022-12-01T21:50:43.643Z,6.07
2022-12-01T21:53:16.166Z,7.70
2022-12-01T21:55:46.482Z,7.27
2022-12-01T21:58:36.115Z,7.32
2022-12-01T22:01:15.257Z,6.38
2022-12-01T22:03:47.544Z,7.10
2022-12-01T22:06:29.818Z,6.68
2022-12-01T22:09:25.165Z,7.82
2022-12-01T22:11:56.507Z,7.75
2022-12-01T22:14:34.650Z,6.97
2022-12-01T22:17:10.866Z,6.47
2022-12-01T22:19:39.749Z,5.93
2022-12-01T22:22:13.301Z,7.90
2022-12-01T22:24:49.481Z,11.25
2022-12-01T22:27:48.904Z,7.63
2022-12-01T22:30:20.520Z,7.60
2022-12-01T22:32:59.978Z,7.40
2022-12-01T22:35:33.605Z,6.80
2022-12-01T22:38:25.643Z,6.30
2022-12-01T22:41:26.376Z,7.05
2022-12-01T22:43:59.701Z,6.03
2022-12-01T22:49:00.092Z,7.90
2022-12-01T22:51:42.541Z,6.75
2022-12-01T22:54:12.333Z,6.72
2022-12-01T22:56:46.489Z,6.03
2022-12-01T22:59:28.207Z,7.35
2022-12-01T23:01:57.685Z,6.47
2022-12-01T23:04:32.329Z,6.65
2022-12-01T23:07:29.610Z,5.93
2022-12-01T23:10:10.969Z,6.85
2022-12-01T23:12:38.985Z,7.65
2022-12-01T23:15:32.453Z,7.47
2022-12-01T23:18:11.821Z,6.07
2022-12-01T23:20:40.382Z,7.18
2022-12-01T23:23:15.129Z,6.35
2022-12-01T23:25:43.576Z,5.53
2022-12-01T23:28:12.552Z,6.88
2022-12-01T23:30:43.068Z,6.47
2022-12-01T23:33:13.455Z,6.25
2022-12-01T23:35:57.926Z,7.88
2022-12-01T23:38:46.141Z,5.93
2022-12-01T23:41:25.732Z,6.10
2022-12-01T23:43:55.686Z,6.10
2022-12-01T23:46:25.556Z,6.68
2022-12-01T23:48:59.297Z,6.68
2022-12-01T23:51:31.371Z,6.63
2022-12-01T23:54:01.031Z,6.82
2022-12-01T23:56:31.843Z,6.40
2022-12-01T23:59:01.284Z,6.30
